createdAt,value
2022-08-24T00:02:11.792Z,83.90
2022-08-24T00:04:40.118Z,84.50
2022-08-24T00:07:25.495Z,84.60
2022-08-24T00:09:55.210Z,84.50
2022-08-24T00:12:22.150Z,85.60
2022-08-24T00:14:49.383Z,85.60
2022-08-24T00:17:17.783Z,84.70
2022-08-24T00:19:44.531Z,85.10
2022-08-24T00:22:11.223Z,86.10
2022-08-24T00:24:37.911Z,86.00
2022-08-24T00:27:06.611Z,85.70
2022-08-24T00:29:34.672Z,86.20
2022-08-24T00:32:01.475Z,86.40
2022-08-24T00:34:30.009Z,86.40
2022-08-24T00:36:56.639Z,86.30
2022-08-24T00:39:23.590Z,87.00
2022-08-24T00:41:51.554Z,87.60
2022-08-24T00:44:19.631Z,88.50
2022-08-24T00:46:50.306Z,88.20
2022-08-24T00:49:35.396Z,88.20
2022-08-24T00:52:14.249Z,88.40
2022-08-24T00:54:46.411Z,88.80
2022-08-24T00:57:16.605Z,88.80
2022-08-24T00:59:48.805Z,89.10
2022-08-24T01:02:21.754Z,89.20
2022-08-24T01:04:57.837Z,89.10
2022-08-24T01:07:27.473Z,89.70
2022-08-24T01:09:55.439Z,90.00
2022-08-24T01:12:22.867Z,89.70
2022-08-24T01:14:49.727Z,90.00
2022-08-24T01:17:39.000Z,90.10
2022-08-24T01:20:08.863Z,90.20
2022-08-24T01:22:55.126Z,90.30
2022-08-24T01:25:24.844Z,90.40
2022-08-24T01:27:53.311Z,90.70
2022-08-24T01:30:21.549Z,90.50
2022-08-24T01:33:02.450Z,90.60
2022-08-24T01:35:29.993Z,90.80
2022-08-24T01:38:00.632Z,90.90
2022-08-24T01:40:34.567Z,91.00
2022-08-24T01:43:01.912Z,91.10
2022-08-24T01:45:28.505Z,91.30
2022-08-24T01:47:55.189Z,91.30
2022-08-24T01:50:21.992Z,91.20
2022-08-24T01:53:05.802Z,91.50
2022-08-24T01:55:33.809Z,91.70
2022-08-24T01:58:01.428Z,91.80
2022-08-24T02:00:28.463Z,92.00
2022-08-24T02:02:57.079Z,92.10
2022-08-24T02:05:25.116Z,92.10
2022-08-24T02:07:52.668Z,92.20
2022-08-24T02:10:20.363Z,92.50
2022-08-24T02:12:58.138Z,92.70
2022-08-24T02:15:27.487Z,92.40
2022-08-24T02:17:54.996Z,92.50
2022-08-24T02:20:22.126Z,92.70
2022-08-24T02:22:50.529Z,92.80
2022-08-24T02:25:18.233Z,92.70
2022-08-24T02:27:45.605Z,92.90
2022-08-24T02:30:12.570Z,93.20
2022-08-24T02:32:41.998Z,93.30
2022-08-24T02:35:09.167Z,93.60
2022-08-24T02:37:36.165Z,93.70
2022-08-24T02:40:11.719Z,94.00
2022-08-24T02:42:38.630Z,94.20
2022-08-24T02:45:06.435Z,94.40
2022-08-24T02:47:38.957Z,94.70
2022-08-24T02:50:09.780Z,95.00
2022-08-24T02:52:40.723Z,95.10
2022-08-24T02:55:09.900Z,95.30
2022-08-24T02:57:38.631Z,95.40
2022-08-24T03:00:10.625Z,95.70
2022-08-24T03:02:37.943Z,95.90
2022-08-24T03:05:05.744Z,96.00
2022-08-24T03:07:32.393Z,96.30
2022-08-24T03:09:59.133Z,96.60
2022-08-24T03:12:25.815Z,96.80
2022-08-24T03:14:52.495Z,97.30
2022-08-24T03:17:19.200Z,97.30
2022-08-24T03:19:46.632Z,97.50
2022-08-24T03:22:13.367Z,97.60
2022-08-24T03:24:40.076Z,97.70
2022-08-24T03:27:06.840Z,98.40
2022-08-24T03:29:36.496Z,98.50
2022-08-24T03:32:03.603Z,98.40
2022-08-24T03:34:30.234Z,98.90
2022-08-24T03:36:56.985Z,99.20
2022-08-24T03:39:23.709Z,99.20
2022-08-24T03:41:50.468Z,99.60
2022-08-24T03:44:21.266Z,99.80
2022-08-24T03:46:49.778Z,99.90
2022-08-24T03:49:16.419Z,99.90
2022-08-24T03:51:43.548Z,99.90
2022-08-24T03:54:12.060Z,99.90
2022-08-24T03:56:39.413Z,99.90
2022-08-24T03:59:07.789Z,99.90
2022-08-24T04:01:34.693Z,99.90
2022-08-24T04:04:01.452Z,99.90
2022-08-24T04:06:28.193Z,99.90
2022-08-24T04:08:56.140Z,99.90
2022-08-24T04:11:25.190Z,99.90
2022-08-24T04:13:57.208Z,99.90
2022-08-24T04:16:25.274Z,99.90
2022-08-24T04:18:52.146Z,99.90
2022-08-24T04:21:20.325Z,99.90
2022-08-24T04:23:48.145Z,99.90
2022-08-24T04:26:16.669Z,99.90
2022-08-24T04:28:59.946Z,99.90
2022-08-24T04:31:28.626Z,99.90
2022-08-24T04:33:55.644Z,99.90
2022-08-24T04:36:23.235Z,99.90
2022-08-24T04:38:50.649Z,99.90
2022-08-24T04:41:30.923Z,99.90
2022-08-24T04:43:59.646Z,99.90
2022-08-24T04:49:18.467Z,99.90
2022-08-24T04:51:45.431Z,99.90
2022-08-24T04:54:12.264Z,99.90
2022-08-24T05:02:22.927Z,99.90
2022-08-24T05:04:49.905Z,99.90
2022-08-24T05:07:18.509Z,99.90
2022-08-24T05:09:45.855Z,99.90
2022-08-24T05:12:13.203Z,99.90
2022-08-24T05:14:40.142Z,99.90
2022-08-24T05:17:09.290Z,99.90
2022-08-24T05:19:37.723Z,99.90
2022-08-24T05:22:05.384Z,99.90
2022-08-24T05:24:32.637Z,99.90
2022-08-24T05:27:00.613Z,99.90
2022-08-24T05:29:28.054Z,99.90
2022-08-24T05:31:59.211Z,99.90
2022-08-24T05:34:29.541Z,99.90
2022-08-24T05:36:56.365Z,99.90
2022-08-24T05:39:24.439Z,99.90
2022-08-24T05:41:51.485Z,99.90
2022-08-24T05:44:18.756Z,99.90
2022-08-24T05:46:46.358Z,99.90
2022-08-24T05:49:13.966Z,99.90
2022-08-24T05:51:42.905Z,99.90
2022-08-24T05:54:11.455Z,99.90
2022-08-24T05:56:38.377Z,99.90
2022-08-24T05:59:05.737Z,99.90
2022-08-24T06:01:33.705Z,99.90
2022-08-24T06:04:01.263Z,99.90
2022-08-24T06:06:28.936Z,99.90
2022-08-24T06:08:58.123Z,99.90
2022-08-24T06:11:30.377Z,99.90
2022-08-24T06:14:07.225Z,99.90
2022-08-24T06:19:31.268Z,99.90
2022-08-24T06:21:58.100Z,99.90
2022-08-24T06:27:37.578Z,99.90
2022-08-24T06:30:12.719Z,99.90
2022-08-24T06:32:39.950Z,99.90
2022-08-24T06:35:08.019Z,99.90
2022-08-24T06:37:38.238Z,99.90
2022-08-24T06:40:05.732Z,99.90
2022-08-24T06:42:34.225Z,99.90
2022-08-24T06:45:00.847Z,99.90
2022-08-24T06:47:27.596Z,99.90
2022-08-24T06:49:54.288Z,99.90
2022-08-24T06:52:20.972Z,99.90
2022-08-24T06:54:47.669Z,99.90
2022-08-24T06:57:14.331Z,99.90
2022-08-24T06:59:43.022Z,99.90
2022-08-24T07:02:10.290Z,99.10
2022-08-24T07:04:37.251Z,98.50
2022-08-24T07:07:04.209Z,99.10
2022-08-24T07:09:33.828Z,99.20
2022-08-24T07:12:00.647Z,98.60
2022-08-24T07:14:27.911Z,98.10
2022-08-24T07:16:54.570Z,98.10
2022-08-24T07:19:21.276Z,97.90
2022-08-24T07:21:48.245Z,97.30
2022-08-24T07:24:14.961Z,96.70
2022-08-24T07:26:41.862Z,96.90
2022-08-24T07:29:43.660Z,96.90
2022-08-24T07:32:02.016Z,96.50
2022-08-24T07:34:29.217Z,95.60
2022-08-24T07:36:56.007Z,95.70
2022-08-24T07:39:22.676Z,96.00
2022-08-24T07:42:11.380Z,95.20
2022-08-24T07:44:35.979Z,94.60
2022-08-24T07:47:20.797Z,94.60
2022-08-24T07:49:50.048Z,94.80
2022-08-24T07:52:16.730Z,95.00
2022-08-24T07:54:43.390Z,94.50
2022-08-24T07:57:10.088Z,94.60
2022-08-24T07:59:37.540Z,94.40
2022-08-24T08:02:05.259Z,94.00
2022-08-24T08:04:32.854Z,94.30
2022-08-24T08:07:01.555Z,94.00
2022-08-24T08:09:29.090Z,93.50
2022-08-24T08:11:55.851Z,93.30
2022-08-24T08:14:22.471Z,93.50
2022-08-24T08:16:49.711Z,92.60
2022-08-24T08:19:17.076Z,93.20
2022-08-24T08:22:04.688Z,92.90
2022-08-24T08:24:31.487Z,92.90
2022-08-24T08:26:58.369Z,92.70
2022-08-24T08:29:26.064Z,92.10
2022-08-24T08:31:53.482Z,92.10
2022-08-24T08:34:20.972Z,91.70
2022-08-24T08:36:48.128Z,91.20
2022-08-24T08:39:17.333Z,91.20
2022-08-24T08:41:56.965Z,90.30
2022-08-24T08:44:43.999Z,90.30
2022-08-24T08:47:33.900Z,90.30
2022-08-24T08:50:26.102Z,90.30
2022-08-24T08:53:32.705Z,90.30
2022-08-24T08:56:20.546Z,89.80
2022-08-24T08:59:07.344Z,90.00
2022-08-24T09:01:52.536Z,87.40
2022-08-24T09:04:54.961Z,86.50
2022-08-24T09:07:43.461Z,85.70
2022-08-24T09:10:16.029Z,86.20
2022-08-24T09:13:11.233Z,87.10
2022-08-24T09:15:47.212Z,86.90
2022-08-24T09:18:49.942Z,86.40
2022-08-24T09:21:38.301Z,86.30
2022-08-24T09:24:33.226Z,85.20
2022-08-24T09:27:28.931Z,83.20
2022-08-24T09:30:18.255Z,84.20
2022-08-24T09:33:00.377Z,85.50
2022-08-24T09:36:02.286Z,85.30
2022-08-24T09:38:58.893Z,86.40
2022-08-24T09:41:26.075Z,85.10
2022-08-24T09:44:04.630Z,83.80
2022-08-24T09:47:01.838Z,82.50
2022-08-24T09:50:16.463Z,83.70
2022-08-24T09:53:17.197Z,83.60
2022-08-24T09:56:12.020Z,82.50
2022-08-24T09:58:54.596Z,81.90
2022-08-24T10:01:42.982Z,82.20
2022-08-24T10:04:29.682Z,81.10
2022-08-24T10:07:18.491Z,80.90
2022-08-24T10:10:02.722Z,81.00
2022-08-24T10:12:55.986Z,81.90
2022-08-24T10:15:38.303Z,81.00
2022-08-24T10:18:25.306Z,80.40
2022-08-24T10:21:08.840Z,80.80
2022-08-24T10:24:00.793Z,78.90
2022-08-24T10:27:03.155Z,79.60
2022-08-24T10:30:00.755Z,80.20
2022-08-24T10:32:47.518Z,77.80
2022-08-24T10:35:27.931Z,76.80
2022-08-24T10:38:44.297Z,77.00
2022-08-24T10:41:11.118Z,76.60
2022-08-24T10:44:18.612Z,75.40
2022-08-24T10:46:55.429Z,76.20
2022-08-24T10:49:35.024Z,75.70
2022-08-24T10:52:26.252Z,76.20
2022-08-24T10:54:53.190Z,76.60
2022-08-24T10:57:38.826Z,76.50
2022-08-24T11:00:22.621Z,74.80
2022-08-24T11:02:50.318Z,75.30
2022-08-24T11:05:29.658Z,75.70
2022-08-24T11:08:05.050Z,75.70
2022-08-24T11:10:36.126Z,75.40
2022-08-24T11:13:22.589Z,74.70
2022-08-24T11:15:55.628Z,75.00
2022-08-24T11:18:23.086Z,74.80
2022-08-24T11:20:53.079Z,74.70
2022-08-24T11:23:31.022Z,75.20
2022-08-24T11:26:05.404Z,74.50
2022-08-24T11:28:37.571Z,73.20
2022-08-24T11:31:04.905Z,73.10
2022-08-24T11:33:45.052Z,74.90
2022-08-24T11:36:20.924Z,74.00
2022-08-24T11:38:48.585Z,73.00
2022-08-24T11:41:19.418Z,72.90
2022-08-24T11:43:58.461Z,72.80
2022-08-24T11:46:47.975Z,73.60
2022-08-24T11:49:28.619Z,72.20
2022-08-24T11:52:21.042Z,72.80
2022-08-24T11:54:50.932Z,74.00
2022-08-24T11:57:29.787Z,73.40
2022-08-24T12:00:12.706Z,73.40
2022-08-24T12:02:49.027Z,72.70
2022-08-24T12:05:40.295Z,72.50
2022-08-24T12:08:31.454Z,71.90
2022-08-24T12:11:31.415Z,71.50
2022-08-24T12:14:13.217Z,72.10
2022-08-24T12:16:59.091Z,71.20
2022-08-24T12:19:33.215Z,70.70
2022-08-24T12:22:05.899Z,69.40
2022-08-24T12:24:43.805Z,69.10
2022-08-24T12:27:20.405Z,68.40
2022-08-24T12:29:51.712Z,68.20
2022-08-24T12:32:26.897Z,68.50
2022-08-24T12:35:08.145Z,68.70
2022-08-24T12:38:10.422Z,68.30
2022-08-24T12:40:44.828Z,68.20
2022-08-24T12:43:35.957Z,66.70
2022-08-24T12:46:03.788Z,67.10
2022-08-24T12:48:49.001Z,66.00
2022-08-24T12:51:40.398Z,66.30
2022-08-24T12:54:45.422Z,65.20
2022-08-24T12:57:25.372Z,65.80
2022-08-24T12:59:56.839Z,66.60
2022-08-24T13:02:23.536Z,67.00
2022-08-24T13:04:50.146Z,66.50
2022-08-24T13:07:19.492Z,66.40
2022-08-24T13:09:47.682Z,66.00
2022-08-24T13:12:32.972Z,66.90
2022-08-24T13:15:25.429Z,67.30
2022-08-24T13:18:21.241Z,66.90
2022-08-24T13:20:49.135Z,67.80
2022-08-24T13:23:20.991Z,68.60
2022-08-24T13:25:47.728Z,69.20
2022-08-24T13:28:20.662Z,68.80
2022-08-24T13:31:10.033Z,69.30
2022-08-24T13:34:09.035Z,70.30
2022-08-24T13:36:35.620Z,69.80
2022-08-24T13:39:24.812Z,70.50
2022-08-24T13:42:06.975Z,69.20
2022-08-24T13:44:51.528Z,69.40
2022-08-24T13:47:46.952Z,70.10
2022-08-24T13:50:28.912Z,70.40
2022-08-24T13:53:26.966Z,69.50
2022-08-24T13:56:18.931Z,70.40
2022-08-24T13:59:01.355Z,70.30
2022-08-24T14:02:06.512Z,69.60
2022-08-24T14:04:56.838Z,69.40
2022-08-24T14:07:52.686Z,70.50
2022-08-24T14:10:54.127Z,70.10
2022-08-24T14:13:32.219Z,69.70
2022-08-24T14:16:28.726Z,69.50
2022-08-24T14:19:10.270Z,70.30
2022-08-24T14:21:53.538Z,70.00
2022-08-24T14:24:54.989Z,70.60
2022-08-24T14:27:33.532Z,70.00
2022-08-24T14:30:18.320Z,68.70
2022-08-24T14:33:07.799Z,69.50
2022-08-24T14:36:08.470Z,69.70
2022-08-24T14:39:04.206Z,69.50
2022-08-24T14:42:05.279Z,69.00
2022-08-24T14:44:56.255Z,69.20
2022-08-24T14:47:44.924Z,70.30
2022-08-24T14:50:20.284Z,69.80
2022-08-24T14:53:05.122Z,68.80
2022-08-24T14:55:45.226Z,69.40
2022-08-24T14:58:29.168Z,69.60
2022-08-24T15:01:32.700Z,69.60
2022-08-24T15:04:27.479Z,69.80
2022-08-24T15:07:26.831Z,69.50
2022-08-24T15:09:55.619Z,69.70
2022-08-24T15:12:42.519Z,70.10
2022-08-24T15:15:11.645Z,69.10
2022-08-24T15:17:44.312Z,69.40
2022-08-24T15:20:38.922Z,68.80
2022-08-24T15:23:18.333Z,69.10
2022-08-24T15:25:58.382Z,69.80
2022-08-24T15:28:32.402Z,69.90
2022-08-24T15:31:03.745Z,69.50
2022-08-24T15:33:31.631Z,70.30
2022-08-24T15:36:11.546Z,69.20
2022-08-24T15:38:40.345Z,68.50
2022-08-24T15:41:13.429Z,69.00
2022-08-24T15:43:51.968Z,68.70
2022-08-24T15:46:23.466Z,68.80
2022-08-24T15:48:51.072Z,68.90
2022-08-24T15:51:35.003Z,68.80
2022-08-24T15:54:16.375Z,68.40
2022-08-24T15:56:52.521Z,68.50
2022-08-24T15:59:39.277Z,69.20
2022-08-24T16:02:28.833Z,68.60
2022-08-24T16:05:02.478Z,68.80
2022-08-24T16:07:53.881Z,69.00
2022-08-24T16:10:28.894Z,69.80
2022-08-24T16:13:06.926Z,69.70
2022-08-24T16:15:33.855Z,69.50
2022-08-24T16:18:00.769Z,68.80
2022-08-24T16:20:27.423Z,68.80
2022-08-24T16:23:22.253Z,69.40
2022-08-24T16:25:51.170Z,68.70
2022-08-24T16:28:21.464Z,68.40
2022-08-24T16:30:54.619Z,69.20
2022-08-24T16:33:43.098Z,68.30
2022-08-24T16:36:11.562Z,68.40
2022-08-24T16:38:43.691Z,67.80
2022-08-24T16:41:16.147Z,68.50
2022-08-24T16:43:43.359Z,68.20
2022-08-24T16:46:11.706Z,68.60
2022-08-24T16:48:39.501Z,68.40
2022-08-24T16:51:06.353Z,68.50
2022-08-24T16:53:32.973Z,68.30
2022-08-24T16:55:59.681Z,68.60
2022-08-24T16:58:31.831Z,68.50
2022-08-24T17:00:58.812Z,68.00
2022-08-24T17:03:26.116Z,68.60
2022-08-24T17:05:52.732Z,68.70
2022-08-24T17:08:19.481Z,69.40
2022-08-24T17:10:46.196Z,69.80
2022-08-24T17:13:27.652Z,69.30
2022-08-24T17:15:59.752Z,69.60
2022-08-24T17:18:26.481Z,69.90
2022-08-24T17:20:53.137Z,69.70
2022-08-24T17:23:21.504Z,69.90
2022-08-24T17:25:48.269Z,69.60
2022-08-24T17:28:18.682Z,69.20
2022-08-24T17:30:48.562Z,69.30
2022-08-24T17:33:18.567Z,69.40
2022-08-24T17:35:45.820Z,69.30
2022-08-24T17:38:12.552Z,68.90
2022-08-24T17:40:39.282Z,68.80
2022-08-24T17:43:06.148Z,68.90
2022-08-24T17:45:33.030Z,69.40
2022-08-24T17:47:59.813Z,69.50
2022-08-24T17:50:28.394Z,69.70
2022-08-24T17:52:59.011Z,69.60
2022-08-24T17:55:27.578Z,70.00
2022-08-24T17:57:54.321Z,70.30
2022-08-24T18:00:21.092Z,70.60
2022-08-24T18:02:47.780Z,70.80
2022-08-24T18:05:14.885Z,71.00
2022-08-24T18:07:53.441Z,71.00
2022-08-24T18:10:27.802Z,71.10
2022-08-24T18:12:55.575Z,71.30
2022-08-24T18:15:32.594Z,71.60
2022-08-24T18:18:08.387Z,71.70
2022-08-24T18:20:41.097Z,71.70
2022-08-24T18:23:11.671Z,72.10
2022-08-24T18:25:45.954Z,72.30
2022-08-24T18:28:14.732Z,72.10
2022-08-24T18:30:42.179Z,72.30
2022-08-24T18:33:10.762Z,72.40
2022-08-24T18:35:37.815Z,72.60
2022-08-24T18:38:04.859Z,73.10
2022-08-24T18:40:33.363Z,72.80
2022-08-24T18:43:03.000Z,72.60
2022-08-24T18:48:23.356Z,73.90
2022-08-24T18:50:52.046Z,73.60
2022-08-24T18:53:19.520Z,73.80
2022-08-24T18:55:48.033Z,73.30
2022-08-24T18:58:15.051Z,73.70
2022-08-24T19:00:42.757Z,73.90
2022-08-24T19:03:14.960Z,73.80
2022-08-24T19:05:42.245Z,73.60
2022-08-24T19:08:12.436Z,73.50
2022-08-24T19:10:39.795Z,73.60
2022-08-24T19:13:09.805Z,74.00
2022-08-24T19:15:39.739Z,73.50
2022-08-24T19:18:09.965Z,73.50
2022-08-24T19:20:46.017Z,73.70
2022-08-24T19:23:22.222Z,73.50
2022-08-24T19:25:49.515Z,74.00
2022-08-24T19:28:17.285Z,73.80
2022-08-24T19:30:44.939Z,73.40
2022-08-24T19:33:14.954Z,73.70
2022-08-24T19:35:42.308Z,73.80
2022-08-24T19:38:09.374Z,74.00
2022-08-24T19:40:37.530Z,73.70
2022-08-24T19:43:08.445Z,74.20
2022-08-24T19:48:45.693Z,74.10
2022-08-24T19:51:13.990Z,74.20
2022-08-24T19:53:43.072Z,74.90
2022-08-24T19:56:11.533Z,74.60
2022-08-24T19:58:38.700Z,74.90
2022-08-24T20:01:11.468Z,74.70
2022-08-24T20:03:38.603Z,74.30
2022-08-24T20:06:06.061Z,74.60
2022-08-24T20:08:32.905Z,74.60
2022-08-24T20:11:00.682Z,74.60
2022-08-24T20:13:28.134Z,74.10
2022-08-24T20:15:56.399Z,74.90
2022-08-24T20:18:34.215Z,74.50
2022-08-24T20:21:01.970Z,74.80
2022-08-24T20:23:29.629Z,74.90
2022-08-24T20:25:58.617Z,74.80
2022-08-24T20:28:38.161Z,75.10
2022-08-24T20:31:08.016Z,74.80
2022-08-24T20:33:35.211Z,75.10
2022-08-24T20:36:02.687Z,74.90
2022-08-24T20:38:31.874Z,75.70
2022-08-24T20:40:59.642Z,75.30
2022-08-24T20:43:27.099Z,75.10
2022-08-24T20:48:46.801Z,75.30
2022-08-24T20:51:23.468Z,75.40
2022-08-24T20:53:50.750Z,75.10
2022-08-24T20:56:34.488Z,75.10
2022-08-24T21:01:56.197Z,75.50
2022-08-24T21:04:23.346Z,75.80
2022-08-24T21:06:50.866Z,75.40
2022-08-24T21:09:18.789Z,75.60
2022-08-24T21:11:46.303Z,75.50
2022-08-24T21:14:13.288Z,75.50
2022-08-24T21:16:42.510Z,75.60
2022-08-24T21:19:11.127Z,75.40
2022-08-24T21:21:42.087Z,75.60
2022-08-24T21:24:09.606Z,76.20
2022-08-24T21:26:36.436Z,75.90
2022-08-24T21:29:05.515Z,76.00
2022-08-24T21:31:32.603Z,76.00
2022-08-24T21:34:18.170Z,76.30
2022-08-24T21:36:46.276Z,76.60
2022-08-24T21:39:13.611Z,76.40
2022-08-24T21:41:40.594Z,76.70
2022-08-24T21:44:07.678Z,76.90
2022-08-24T21:46:37.472Z,76.70
2022-08-24T21:49:04.450Z,77.20
2022-08-24T21:51:31.409Z,77.00
2022-08-24T21:53:59.935Z,77.40
2022-08-24T21:56:30.606Z,77.40
2022-08-24T21:58:57.490Z,77.80
2022-08-24T22:01:24.216Z,77.70
2022-08-24T22:03:51.052Z,78.10
2022-08-24T22:06:18.049Z,78.30
2022-08-24T22:08:44.923Z,78.00
2022-08-24T22:11:14.272Z,78.30
2022-08-24T22:13:41.812Z,78.10
2022-08-24T22:16:08.649Z,78.30
2022-08-24T22:18:35.673Z,78.70
2022-08-24T22:21:07.868Z,78.70
2022-08-24T22:23:35.453Z,79.20
2022-08-24T22:26:02.155Z,79.10
2022-08-24T22:28:29.142Z,79.20
2022-08-24T22:30:56.573Z,79.80
2022-08-24T22:33:23.513Z,79.20
2022-08-24T22:35:51.727Z,79.60
2022-08-24T22:38:20.104Z,79.70
2022-08-24T22:40:53.442Z,79.80
2022-08-24T22:43:24.429Z,79.90
2022-08-24T22:45:52.019Z,79.90
2022-08-24T22:48:18.681Z,80.20
2022-08-24T22:50:46.403Z,80.50
2022-08-24T22:53:13.609Z,80.40
2022-08-24T22:55:40.286Z,80.40
2022-08-24T22:58:06.938Z,80.60
2022-08-24T23:00:33.721Z,80.70
2022-08-24T23:03:00.502Z,80.80
2022-08-24T23:05:27.339Z,80.80
2022-08-24T23:07:54.030Z,81.00
2022-08-24T23:10:20.778Z,81.10
2022-08-24T23:12:47.380Z,81.30
2022-08-24T23:15:14.062Z,81.30
2022-08-24T23:17:42.759Z,81.10
2022-08-24T23:20:10.344Z,81.50
2022-08-24T23:22:39.983Z,81.30
2022-08-24T23:25:11.989Z,81.50
2022-08-24T23:27:39.018Z,81.80
2022-08-24T23:30:09.157Z,81.60
2022-08-24T23:32:36.131Z,81.70
2022-08-24T23:35:04.092Z,82.10
2022-08-24T23:37:31.026Z,83.80
2022-08-24T23:39:58.384Z,83.20
2022-08-24T23:42:25.143Z,83.80
2022-08-24T23:44:51.910Z,84.20
2022-08-24T23:47:18.557Z,83.90
2022-08-24T23:49:45.301Z,84.20
2022-08-24T23:52:26.450Z,84.00
2022-08-24T23:54:56.220Z,84.20
2022-08-24T23:57:43.245Z,84.20
